createdAt,value
2022-10-19T00:00:33.198Z,63.02
2022-10-19T00:02:59.678Z,63.01
2022-10-19T00:05:26.197Z,62.88
2022-10-19T00:07:52.860Z,63.04
2022-10-19T00:10:19.366Z,63.22
2022-10-19T00:12:45.889Z,62.99
2022-10-19T00:15:12.482Z,63.24
2022-10-19T00:17:38.977Z,63.23
2022-10-19T00:20:05.901Z,63.02
2022-10-19T00:22:32.787Z,63.27
2022-10-19T00:24:59.482Z,63.11
2022-10-19T00:27:26.003Z,63.27
2022-10-19T00:29:53.056Z,63.06
2022-10-19T00:32:19.643Z,63.43
2022-10-19T00:34:46.164Z,63.14
2022-10-19T00:37:12.641Z,62.86
2022-10-19T00:39:39.614Z,62.78
2022-10-19T00:42:06.334Z,63.05
2022-10-19T00:44:32.766Z,63.01
2022-10-19T00:47:01.967Z,62.84
2022-10-19T00:49:30.542Z,62.82
2022-10-19T00:52:01.218Z,63.07
2022-10-19T00:54:28.243Z,63.03
2022-10-19T00:56:57.460Z,63.01
2022-10-19T00:59:25.286Z,63.24
2022-10-19T01:01:52.699Z,62.80
2022-10-19T01:04:21.913Z,62.83
2022-10-19T01:06:48.530Z,63.07
2022-10-19T01:09:15.059Z,63.15
2022-10-19T01:11:54.067Z,62.96
2022-10-19T01:14:33.093Z,63.11
2022-10-19T01:17:11.657Z,63.39
2022-10-19T01:19:56.897Z,63.50
2022-10-19T01:22:48.169Z,63.23
2022-10-19T01:25:21.678Z,63.58
2022-10-19T01:27:57.812Z,63.08
2022-10-19T01:30:45.953Z,63.25
2022-10-19T01:33:18.805Z,63.39
2022-10-19T01:36:04.333Z,63.50
2022-10-19T01:38:38.537Z,63.27
2022-10-19T01:41:11.395Z,63.39
2022-10-19T01:44:01.969Z,63.41
2022-10-19T01:46:41.308Z,62.97
2022-10-19T01:49:13.100Z,62.93
2022-10-19T01:51:45.045Z,62.96
2022-10-19T01:54:14.313Z,63.02
2022-10-19T01:56:43.171Z,63.11
2022-10-19T01:59:11.033Z,63.04
2022-10-19T02:01:41.211Z,62.84
2022-10-19T02:04:08.159Z,63.22
2022-10-19T02:06:35.565Z,63.13
2022-10-19T02:09:02.112Z,63.29
2022-10-19T02:11:29.269Z,63.41
2022-10-19T02:13:59.549Z,63.32
2022-10-19T02:16:41.083Z,63.12
2022-10-19T02:19:08.859Z,63.18
2022-10-19T02:21:35.688Z,63.11
2022-10-19T02:24:02.216Z,63.13
2022-10-19T02:26:28.809Z,63.26
2022-10-19T02:28:56.047Z,63.11
2022-10-19T02:31:22.971Z,63.30
2022-10-19T02:33:49.559Z,63.24
2022-10-19T02:36:16.167Z,63.35
2022-10-19T02:38:42.781Z,63.26
2022-10-19T02:41:17.284Z,63.49
2022-10-19T02:43:47.287Z,63.22
2022-10-19T02:46:20.377Z,63.18
2022-10-19T02:48:47.238Z,63.09
2022-10-19T02:51:39.837Z,63.55
2022-10-19T02:54:08.151Z,62.86
2022-10-19T02:56:35.415Z,63.30
2022-10-19T02:59:02.366Z,63.50
2022-10-19T03:01:28.944Z,63.33
2022-10-19T03:03:55.467Z,63.46
2022-10-19T03:06:22.122Z,63.51
2022-10-19T03:08:48.597Z,63.44
2022-10-19T03:11:15.126Z,63.72
2022-10-19T03:13:42.261Z,63.59
2022-10-19T03:16:10.766Z,63.73
2022-10-19T03:18:37.204Z,63.46
2022-10-19T03:21:05.882Z,63.36
2022-10-19T03:23:32.498Z,63.26
2022-10-19T03:25:58.987Z,63.47
2022-10-19T03:28:25.552Z,63.32
2022-10-19T03:30:52.115Z,63.13
2022-10-19T03:33:18.678Z,63.30
2022-10-19T03:35:45.236Z,63.23
2022-10-19T03:38:11.843Z,63.54
2022-10-19T03:40:39.672Z,63.33
2022-10-19T03:43:06.449Z,63.54
2022-10-19T03:45:32.992Z,63.21
2022-10-19T03:47:59.500Z,63.51
2022-10-19T03:50:26.088Z,63.37
2022-10-19T03:52:52.591Z,63.25
2022-10-19T03:55:19.115Z,63.40
2022-10-19T03:57:45.623Z,63.59
2022-10-19T04:00:12.789Z,63.60
2022-10-19T04:02:39.214Z,63.54
2022-10-19T04:05:06.323Z,63.60
2022-10-19T04:07:33.113Z,63.54
2022-10-19T04:09:59.850Z,63.65
2022-10-19T04:12:26.333Z,63.58
2022-10-19T04:14:57.278Z,63.32
2022-10-19T04:17:24.794Z,63.55
2022-10-19T04:19:51.281Z,63.58
2022-10-19T04:22:17.774Z,63.39
2022-10-19T04:24:44.265Z,63.33
2022-10-19T04:27:10.792Z,63.29
2022-10-19T04:29:37.321Z,63.56
2022-10-19T04:32:03.810Z,63.02
2022-10-19T04:34:30.305Z,63.37
2022-10-19T04:36:59.232Z,63.21
2022-10-19T04:39:25.762Z,63.52
2022-10-19T04:41:52.274Z,63.30
2022-10-19T04:44:19.743Z,63.40
2022-10-19T04:46:46.298Z,63.64
2022-10-19T04:49:16.377Z,63.67
2022-10-19T04:51:45.944Z,63.53
2022-10-19T04:54:12.482Z,63.89
2022-10-19T04:56:39.561Z,64.18
2022-10-19T04:59:06.077Z,64.00
2022-10-19T05:01:32.599Z,64.20
2022-10-19T05:04:01.026Z,63.91
2022-10-19T05:06:27.617Z,64.00
2022-10-19T05:08:54.484Z,63.75
2022-10-19T05:11:21.187Z,64.06
2022-10-19T05:13:48.300Z,63.84
2022-10-19T05:16:17.918Z,63.72
2022-10-19T05:18:51.653Z,63.49
2022-10-19T05:21:19.250Z,63.77
2022-10-19T05:23:45.845Z,63.58
2022-10-19T05:26:22.899Z,63.41
2022-10-19T05:28:50.858Z,63.49
2022-10-19T05:31:19.698Z,63.54
2022-10-19T05:33:46.852Z,63.31
2022-10-19T05:36:32.294Z,63.46
2022-10-19T05:39:01.981Z,63.49
2022-10-19T05:41:28.753Z,63.28
2022-10-19T05:43:57.378Z,63.43
2022-10-19T05:46:25.114Z,63.39
2022-10-19T05:48:51.698Z,63.51
2022-10-19T05:51:20.113Z,63.14
2022-10-19T05:53:46.846Z,63.21
2022-10-19T05:56:19.351Z,63.20
2022-10-19T05:58:46.132Z,63.24
2022-10-19T06:01:12.797Z,63.02
2022-10-19T06:03:39.750Z,63.08
2022-10-19T06:06:07.889Z,62.97
2022-10-19T06:08:34.680Z,63.24
2022-10-19T06:11:28.711Z,63.08
2022-10-19T06:13:56.833Z,62.96
2022-10-19T06:16:24.401Z,62.92
2022-10-19T06:18:52.287Z,62.72
2022-10-19T06:21:20.927Z,62.59
2022-10-19T06:23:55.186Z,62.83
2022-10-19T06:26:22.017Z,62.55
2022-10-19T06:28:49.472Z,62.31
2022-10-19T06:31:16.846Z,62.44
2022-10-19T06:33:47.230Z,62.02
2022-10-19T06:36:18.737Z,61.94
2022-10-19T06:38:45.592Z,62.02
2022-10-19T06:41:12.451Z,62.12
2022-10-19T06:43:39.272Z,61.83
2022-10-19T06:46:11.610Z,61.45
2022-10-19T06:48:38.515Z,61.51
2022-10-19T06:51:07.422Z,61.83
2022-10-19T06:53:37.142Z,61.55
2022-10-19T06:56:05.989Z,61.48
2022-10-19T06:58:39.113Z,61.33
2022-10-19T07:01:10.125Z,61.27
2022-10-19T07:03:37.637Z,61.13
2022-10-19T07:06:06.920Z,60.99
2022-10-19T07:08:35.762Z,61.93
2022-10-19T07:11:05.436Z,61.78
2022-10-19T07:13:32.058Z,61.84
2022-10-19T07:16:06.864Z,61.97
2022-10-19T07:18:34.743Z,61.86
2022-10-19T07:21:04.127Z,61.41
2022-10-19T07:23:31.977Z,61.16
2022-10-19T07:26:03.706Z,60.93
2022-10-19T07:28:30.927Z,61.25
2022-10-19T07:30:57.571Z,60.92
2022-10-19T07:33:24.218Z,60.92
2022-10-19T07:35:50.871Z,60.95
2022-10-19T07:38:17.487Z,60.35
2022-10-19T07:40:46.552Z,60.42
2022-10-19T07:43:14.220Z,59.69
2022-10-19T07:45:40.831Z,60.04
2022-10-19T07:48:07.420Z,60.11
2022-10-19T07:50:35.439Z,60.08
2022-10-19T07:53:05.155Z,60.21
2022-10-19T07:55:34.101Z,59.83
2022-10-19T07:58:01.976Z,59.90
2022-10-19T08:00:29.657Z,59.68
2022-10-19T08:03:19.345Z,59.67
2022-10-19T08:05:42.982Z,59.72
2022-10-19T08:08:11.988Z,59.40
2022-10-19T08:10:38.688Z,59.26
2022-10-19T08:13:05.228Z,59.33
2022-10-19T08:15:32.498Z,59.12
2022-10-19T08:17:59.933Z,58.99
2022-10-19T08:20:27.077Z,58.76
2022-10-19T08:22:56.533Z,59.05
2022-10-19T08:25:25.651Z,58.68
2022-10-19T08:27:52.641Z,58.86
2022-10-19T08:30:19.353Z,58.38
2022-10-19T08:32:45.978Z,58.29
2022-10-19T08:35:12.594Z,58.09
2022-10-19T08:37:44.690Z,57.78
2022-10-19T08:40:24.533Z,57.80
2022-10-19T08:43:17.977Z,57.53
2022-10-19T08:45:51.464Z,57.37
2022-10-19T08:48:32.942Z,56.91
2022-10-19T08:51:00.346Z,56.77
2022-10-19T08:53:41.436Z,56.80
2022-10-19T08:59:26.738Z,56.94
2022-10-19T09:02:03.596Z,57.04
2022-10-19T09:04:37.226Z,56.96
2022-10-19T09:07:10.064Z,56.97
2022-10-19T09:09:43.163Z,56.83
2022-10-19T09:12:11.996Z,56.67
2022-10-19T09:14:43.945Z,56.99
2022-10-19T09:17:13.929Z,56.67
2022-10-19T09:19:40.624Z,56.70
2022-10-19T09:22:13.277Z,56.84
2022-10-19T09:24:53.189Z,56.63
2022-10-19T09:27:28.906Z,56.46
2022-10-19T09:29:57.982Z,56.50
2022-10-19T09:32:44.998Z,56.39
2022-10-19T09:35:50.159Z,56.43
2022-10-19T09:38:16.877Z,56.51
2022-10-19T09:40:44.072Z,56.27
2022-10-19T09:43:20.971Z,56.65
2022-10-19T09:45:58.768Z,56.32
2022-10-19T09:48:44.079Z,56.24
2022-10-19T09:51:13.938Z,56.23
2022-10-19T09:53:50.430Z,56.19
2022-10-19T09:56:23.131Z,56.23
2022-10-19T09:58:51.818Z,56.28
2022-10-19T10:01:43.193Z,56.40
2022-10-19T10:04:13.921Z,56.27
2022-10-19T10:06:41.328Z,56.03
2022-10-19T10:09:08.060Z,56.26
2022-10-19T10:11:38.142Z,56.15
2022-10-19T10:14:29.045Z,55.92
2022-10-19T10:17:04.498Z,56.07
2022-10-19T10:19:32.716Z,56.05
2022-10-19T10:22:00.186Z,55.71
2022-10-19T10:24:31.302Z,55.67
2022-10-19T10:27:03.852Z,55.79
2022-10-19T10:29:35.150Z,55.65
2022-10-19T10:32:01.652Z,55.48
2022-10-19T10:34:53.118Z,54.93
2022-10-19T10:37:28.483Z,54.99
2022-10-19T10:39:59.176Z,54.91
2022-10-19T10:42:32.813Z,54.87
2022-10-19T10:44:59.813Z,54.89
2022-10-19T10:47:28.245Z,54.96
2022-10-19T10:50:02.700Z,55.27
2022-10-19T10:52:33.603Z,55.34
2022-10-19T10:55:16.806Z,55.19
2022-10-19T10:57:49.977Z,55.44
2022-10-19T11:00:19.593Z,54.77
2022-10-19T11:02:54.121Z,54.75
2022-10-19T11:05:33.794Z,54.90
2022-10-19T11:08:09.781Z,54.71
2022-10-19T11:10:52.580Z,54.48
2022-10-19T11:13:34.338Z,54.34
2022-10-19T11:16:09.056Z,54.32
2022-10-19T11:18:42.743Z,53.92
2022-10-19T11:21:11.706Z,53.79
2022-10-19T11:23:59.555Z,53.63
2022-10-19T11:26:41.855Z,53.86
2022-10-19T11:29:37.805Z,53.13
2022-10-19T11:32:15.827Z,53.24
2022-10-19T11:35:01.254Z,52.95
2022-10-19T11:37:32.009Z,52.98
2022-10-19T11:40:21.859Z,52.48
2022-10-19T11:43:03.219Z,52.18
2022-10-19T11:45:35.642Z,52.62
2022-10-19T11:48:19.200Z,51.92
2022-10-19T11:50:58.604Z,51.55
2022-10-19T11:53:33.660Z,51.67
2022-10-19T11:56:06.390Z,51.70
2022-10-19T11:58:54.166Z,51.16
2022-10-19T12:01:26.533Z,51.35
2022-10-19T12:04:19.330Z,50.90
2022-10-19T12:06:54.392Z,51.36
2022-10-19T12:09:37.499Z,50.47
2022-10-19T12:12:22.848Z,50.05
2022-10-19T12:14:53.097Z,49.93
2022-10-19T12:17:32.412Z,49.69
2022-10-19T12:20:03.915Z,48.96
2022-10-19T12:22:31.010Z,49.07
2022-10-19T12:24:59.759Z,48.62
2022-10-19T12:27:40.227Z,48.01
2022-10-19T12:30:12.931Z,48.00
2022-10-19T12:32:52.007Z,47.26
2022-10-19T12:35:39.171Z,47.20
2022-10-19T12:38:35.707Z,47.65
2022-10-19T12:41:24.697Z,47.63
2022-10-19T12:43:57.166Z,47.35
2022-10-19T12:46:41.098Z,46.80
2022-10-19T12:49:26.555Z,46.89
2022-10-19T12:51:54.556Z,46.41
2022-10-19T12:54:26.707Z,46.46
2022-10-19T12:56:55.786Z,43.44
2022-10-19T12:59:34.858Z,44.10
2022-10-19T13:02:05.027Z,44.72
2022-10-19T13:04:34.256Z,45.14
2022-10-19T13:07:08.492Z,45.27
2022-10-19T13:09:43.229Z,44.97
2022-10-19T13:12:19.652Z,44.73
2022-10-19T13:14:52.948Z,44.57
2022-10-19T13:17:36.624Z,43.08
2022-10-19T13:20:15.538Z,42.74
2022-10-19T13:22:44.958Z,43.18
2022-10-19T13:25:37.313Z,41.75
2022-10-19T13:28:06.941Z,41.92
2022-10-19T14:58:17.987Z,39.88
2022-10-19T15:00:47.898Z,42.71
2022-10-19T15:03:23.277Z,43.26
2022-10-19T15:05:52.682Z,44.06
2022-10-19T15:08:42.558Z,44.40
2022-10-19T15:11:25.106Z,43.98
2022-10-19T15:13:58.006Z,42.01
2022-10-19T15:16:39.715Z,41.45
2022-10-19T15:19:11.056Z,41.07
2022-10-19T15:21:37.634Z,39.91
2022-10-19T15:47:29.106Z,34.63
2022-10-19T15:49:56.140Z,35.56
2022-10-19T15:52:24.853Z,36.82
2022-10-19T15:54:53.851Z,38.05
2022-10-19T15:57:25.754Z,37.72
2022-10-19T15:59:53.274Z,39.21
2022-10-19T16:02:19.777Z,40.54
2022-10-19T16:04:46.271Z,41.32
2022-10-19T16:07:19.939Z,43.34
2022-10-19T16:09:46.493Z,44.55
2022-10-19T16:12:13.002Z,44.93
2022-10-19T16:14:39.562Z,45.30
2022-10-19T16:17:06.068Z,45.88
2022-10-19T16:19:32.651Z,46.25
2022-10-19T16:21:59.171Z,46.50
2022-10-19T16:24:25.732Z,47.11
2022-10-19T16:26:52.210Z,47.21
2022-10-19T16:29:18.845Z,47.40
2022-10-19T16:31:45.330Z,47.71
2022-10-19T16:34:11.881Z,48.21
2022-10-19T16:36:38.413Z,48.40
2022-10-19T16:39:05.070Z,48.53
2022-10-19T16:41:32.118Z,48.79
2022-10-19T16:43:58.867Z,48.94
2022-10-19T16:46:25.499Z,49.12
2022-10-19T16:48:52.894Z,49.39
2022-10-19T16:51:37.618Z,49.66
2022-10-19T16:54:06.319Z,49.40
2022-10-19T16:56:33.673Z,49.47
2022-10-19T16:59:03.017Z,49.86
2022-10-19T17:01:30.539Z,50.15
2022-10-19T17:03:57.477Z,50.43
2022-10-19T17:06:25.037Z,50.41
2022-10-19T17:09:29.879Z,50.42
2022-10-19T17:11:39.515Z,50.37
2022-10-19T17:14:08.307Z,50.37
2022-10-19T17:16:35.986Z,50.53
2022-10-19T17:19:03.668Z,50.50
2022-10-19T17:21:32.383Z,50.66
2022-10-19T17:24:01.188Z,51.34
2022-10-19T17:26:28.388Z,51.12
2022-10-19T17:28:55.984Z,51.24
2022-10-19T17:31:22.604Z,51.39
2022-10-19T17:33:49.762Z,51.62
2022-10-19T17:36:19.587Z,52.03
2022-10-19T17:38:46.720Z,51.69
2022-10-19T17:41:18.152Z,52.21
2022-10-19T17:43:46.621Z,52.39
2022-10-19T17:46:15.928Z,52.17
2022-10-19T17:48:43.426Z,52.47
2022-10-19T17:51:18.241Z,53.08
2022-10-19T17:53:46.193Z,52.67
2022-10-19T17:56:18.911Z,53.39
2022-10-19T17:58:45.738Z,53.31
2022-10-19T18:01:12.653Z,53.70
2022-10-19T18:03:39.852Z,53.88
2022-10-19T18:06:18.423Z,54.02
2022-10-19T18:08:47.590Z,53.68
2022-10-19T18:11:15.106Z,53.80
2022-10-19T18:13:42.379Z,54.55
2022-10-19T18:16:13.384Z,54.74
2022-10-19T18:18:41.910Z,53.96
2022-10-19T18:21:13.730Z,54.74
2022-10-19T18:23:40.573Z,54.38
2022-10-19T18:26:13.506Z,54.83
